Aviation Digital Data Service (ADDS)

Output produced by METARs form (1213 UTC 16 July 2019)
found at http://www.aviationweather.gov/metar/data/
 
TAF KIAB 161000Z 1610/1716 VRB06KT 9999 SKC QNH2980INS 
     BECMG 1714/1715 19012G18KT 9999 SKC QNH2987INS TX35/1623Z TN20/1611Z
       
KIAD 161120Z 1612/1718 VRB03KT P6SM SCT250 
     FM161700 21004KT P6SM BKN110 
     FM162000 23005KT P6SM VCTS BKN060CB 
     FM170200 18004KT P6SM BKN090 
     FM171300 22005KT P6SM SCT060
       
KIAG 161120Z 1612/1712 20007KT P6SM SCT100 
     FM161700 23011G18KT P6SM FEW100 
     FM162300 22012KT P6SM BKN060 
     FM170500 21005KT 6SM BR VCSH OVC035 
     FM170600 21005KT 6SM -SHRA BR BKN025
       
KIAH 161120Z 1612/1718 17004KT P6SM SCT012 BKN025 
     FM161400 18008KT P6SM SCT025 BKN035 
     FM161900 17010KT P6SM VCSH BKN045 
     FM162300 17009KT P6SM FEW050 BKN250 
     FM170900 16004KT P6SM BKN020 
     FM171400 17008KT P6SM SCT035
       
KICT 161120Z 1612/1712 17006KT P6SM FEW250 
     FM161700 17014KT P6SM FEW250 
     FM170200 15009KT P6SM FEW200 
     FM170800 17009KT P6SM FEW200 WS020/22040KT
       
KIDA 161126Z 1612/1712 21008KT P6SM SCT170 
     FM162000 22010G20KT P6SM SCT120 
     FM162300 21013G23KT P6SM VCTS SCT080CB BKN120 
     FM170400 VRB06KT P6SM FEW130
       
KIFP 161125Z 1612/1712 16005KT P6SM SKC 
     FM161900 19012G22KT P6SM SKC 
     FM162200 20018G28KT P6SM SKC 
     FM170400 16010KT P6SM SKC
       
KILG 161120Z 1612/1712 VRB03KT P6SM FEW250 
     FM161500 21007KT P6SM FEW200 
     FM162300 18006KT P6SM SCT150 
     FM170200 VRB04KT P6SM BKN120
       
KILM 161120Z 1612/1712 18004KT P6SM FEW200
       
KILN 161133Z 1612/1712 18005KT P6SM BKN080 
     FM161400 20012G20KT P6SM VCSH SCT040 BKN150 
     FM162300 20010KT P6SM VCSH BKN040 
     FM170600 19007KT P6SM -SHRA OVC035 
     FM170900 20007KT P6SM -SHRA OVC015
       
KIND 161124Z 1612/1718 16010KT P6SM VCSH SCT040 BKN070 
     FM162000 19010G23KT 6SM SHRA BR VCTS SCT070CB 
     FM170300 18006KT 6SM SHRA BR VCTS BKN030CB 
     FM170600 19006KT 6SM -SHRA BR BKN013 
     FM170800 20005KT P6SM BKN009
       
TAF KINS 1605/1711 24009KT 9999 SKC QNH2984INS 
     BECMG 1620/1621 22012G18KT 9999 SKC QNH2977INS 
     TEMPO 1622/1702 23020G30KT 520009 520906 
     BECMG 1702/1703 24009KT 9999 SKC QNH2982INS TX39/1623Z TN24/1612Z
       
KINT 161120Z 1612/1712 24005KT P6SM BKN200
       
KINW 161120Z 1612/1712 21011KT P6SM FEW120 
     FM162000 23015G25KT P6SM FEW120 
     FM170330 23010KT P6SM SKC
       
KIPL 161120Z 1612/1712 27010KT P6SM SKC 
     FM161500 15008KT P6SM SKC 
     FM162000 17014G22KT P6SM SKC 
     FM170000 22018G28KT P6SM SKC 
     FM170300 25013KT P6SM SKC
       
KIPT 161208Z 1612/1712 VRB03KT P6SM SCT200 
     FM161900 23005KT P6SM VCTS BKN050CB 
     TEMPO 1619/1623 3SM TSRA OVC025CB 
     FM170000 VRB03KT P6SM VCSH BKN100 
     FM170600 VRB02KT P6SM BKN100
       
KISM 161124Z 1612/1712 00000KT P6SM BKN250 
     FM161400 12004KT P6SM FEW035 SCT250 
     FM162000 10009KT P6SM VCTS SCT060CB SCT250 
     FM170000 13005KT P6SM FEW035 SCT100 BKN250 
     FM170400 VRB03KT P6SM SCT250
       
KISN 161121Z 1612/1712 VRB05KT P6SM FEW150 
     FM161700 16008KT P6SM VCTS SCT045CB OVC090 
     FM162300 13009KT P6SM FEW060 SCT100 
     FM170600 11005KT P6SM FEW050 SCT080
       
KISO 161127Z 1612/1712 VRB03KT P6SM FEW200 
     FM161600 20006KT P6SM SCT050 BKN200 
     FM170100 17003KT P6SM SCT050 BKN150 AMD LTD TO CLD VIS AND WIND
       
KISP 161123Z 1612/1712 VRB04KT P6SM SCT250 
     FM161500 24006KT P6SM SCT250 
     FM161700 21010KT P6SM SCT250 
     FM170300 21007KT P6SM SCT150 BKN250
       
KITH 161134Z 1612/1712 VRB04KT P6SM BKN050 BKN150 
     FM161400 21007KT P6SM SCT045 BKN100 
     FM161900 24008KT P6SM VCSH SCT050 BKN100 
     FM162100 26007KT P6SM -SHRA OVC050 
     PROB30 1621/1623 3SM -TSRA BKN050CB 
     FM170100 19004KT P6SM BKN070
       
KIWA 161120Z 1612/1712 13007KT P6SM FEW200 
     FM161800 24006KT P6SM FEW120 FEW250 
     FM162200 27012G18KT P6SM FEW120 FEW250 
     FM170400 24008KT P6SM FEW120 SCT250 
     FM170800 12007KT P6SM FEW120
       
KIXD 161122Z 1612/1712 VRB03KT P6SM FEW040 
     TEMPO 1612/1613 5SM BR OVC015 
     FM161700 17007KT P6SM SCT200